Time;durP1;ratioP1;P1;durP2;ratioP2;P2;SDS_P1;SDS_P2;PMS_P1;PMS_P2;Temp;Humidity;BMP_temperature;BMP_pressure;BME280_temperature;BME280_humidity;BME280_pressure;Samples;Min_cycle;Max_cycle;Signal;HPM_P1;HPM_P2
2021/06/26 00:02:04;;;;;;;15.05;12.57;;;24.30;63.70;;;;;;5072299;28;20021;-67
2021/06/26 00:04:29;;;;;;;16.35;13.30;;;24.30;63.70;;;;;;5071034;28;20524;-66
2021/06/26 00:06:55;;;;;;;12.88;10.57;;;24.40;63.60;;;;;;5072356;28;20100;-68
2021/06/26 00:09:21;;;;;;;13.60;9.55;;;24.40;63.60;;;;;;5071094;28;20472;-68
2021/06/26 00:11:49;;;;;;;10.35;8.98;;;24.40;63.50;;;;;;5072355;28;20048;-68
2021/06/26 00:14:14;;;;;;;12.80;8.27;;;24.40;63.60;;;;;;5070673;28;20052;-68
2021/06/26 00:16:40;;;;;;;10.43;6.22;;;24.40;63.50;;;;;;5072397;28;20113;-68
2021/06/26 00:19:06;;;;;;;9.60;6.22;;;24.40;63.40;;;;;;5075154;28;20028;-68
2021/06/26 00:21:31;;;;;;;9.93;5.22;;;24.40;63.30;;;;;;5075198;28;20072;-67
2021/06/26 00:23:57;;;;;;;7.93;5.40;;;24.30;63.20;;;;;;5075784;28;20032;-68
2021/06/26 00:26:23;;;;;;;9.07;4.75;;;24.40;63.10;;;;;;5075638;28;20028;-68
2021/06/26 00:28:48;;;;;;;6.13;4.20;;;24.30;63.00;;;;;;5075832;28;20111;-68
2021/06/26 00:31:15;;;;;;;6.75;3.80;;;24.40;63.00;;;;;;5076208;28;20038;-68
2021/06/26 00:33:41;;;;;;;5.72;4.10;;;24.40;62.80;;;;;;5076404;28;20032;-68
2021/06/26 00:36:06;;;;;;;5.85;3.67;;;24.30;62.50;;;;;;5075877;28;20098;-68
2021/06/26 00:38:32;;;;;;;7.15;4.20;;;24.30;62.20;;;;;;5076024;28;20024;-67
2021/06/26 00:40:58;;;;;;;4.43;2.85;;;24.40;61.90;;;;;;5076357;28;20425;-68
2021/06/26 00:43:24;;;;;;;8.95;3.20;;;24.30;61.50;;;;;;5075808;28;20640;-68
2021/06/26 00:45:50;;;;;;;4.88;3.58;;;24.40;61.30;;;;;;5076193;28;20033;-68
2021/06/26 00:48:16;;;;;;;3.65;2.50;;;24.30;61.00;;;;;;5075974;28;20071;-68
2021/06/26 00:50:42;;;;;;;4.50;2.35;;;24.30;60.80;;;;;;5076064;28;20116;-68
2021/06/26 00:53:08;;;;;;;6.88;2.88;;;24.30;60.70;;;;;;5076010;28;20056;-68
2021/06/26 00:55:34;;;;;;;3.75;2.35;;;24.30;60.50;;;;;;5075876;28;20025;-68
2021/06/26 00:58:01;;;;;;;4.00;2.28;;;24.40;60.40;;;;;;5076001;28;20047;-68
2021/06/26 01:00:32;;;;;;;2.92;2.15;;;24.30;60.20;;;;;;5074244;28;20107;-68
2021/06/26 01:02:58;;;;;;;3.10;2.03;;;24.40;60.10;;;;;;5075895;28;20024;-68
2021/06/26 01:05:24;;;;;;;3.10;2.13;;;24.30;60.00;;;;;;5075381;28;20467;-68
2021/06/26 01:07:52;;;;;;;3.67;2.38;;;24.40;59.90;;;;;;5075579;28;20033;-68
2021/06/26 01:10:18;;;;;;;4.07;2.13;;;24.40;59.80;;;;;;5075348;28;20036;-68
2021/06/26 01:12:44;;;;;;;3.53;2.20;;;24.30;59.70;;;;;;5075480;28;20020;-68
2021/06/26 01:15:11;;;;;;;3.80;2.08;;;24.30;59.60;;;;;;5075442;28;20096;-67
2021/06/26 01:17:37;;;;;;;4.28;2.28;;;24.30;59.50;;;;;;5075415;28;20025;-67
2021/06/26 01:20:05;;;;;;;3.00;1.90;;;24.30;59.40;;;;;;5075406;28;20036;-68
2021/06/26 01:22:35;;;;;;;3.35;2.20;;;24.30;59.40;;;;;;5075348;28;20024;-68
2021/06/26 01:25:01;;;;;;;;;;;24.30;59.30;;;;;;5075909;28;20052;-68
2021/06/26 01:27:26;;;;;;;3.35;1.92;;;24.30;59.20;;;;;;5075006;28;19952;-68
2021/06/26 01:29:54;;;;;;;2.92;1.98;;;24.30;59.20;;;;;;5075012;28;20029;-68
2021/06/26 01:32:20;;;;;;;4.68;3.00;;;24.30;59.10;;;;;;5075134;28;20035;-68
2021/06/26 01:34:47;;;;;;;6.03;2.42;;;24.30;59.10;;;;;;5075116;28;20423;-68
2021/06/26 01:37:13;;;;;;;3.00;2.25;;;24.30;59.10;;;;;;5074898;28;20049;-68
2021/06/26 01:39:40;;;;;;;6.85;2.13;;;24.30;59.10;;;;;;5073661;28;20033;-67
2021/06/26 01:42:07;;;;;;;5.05;2.20;;;24.30;59.00;;;;;;5073632;28;20028;-69
2021/06/26 01:44:33;;;;;;;3.13;2.33;;;24.30;59.10;;;;;;5075198;28;20029;-70
2021/06/26 01:46:58;;;;;;;4.47;2.00;;;24.30;59.10;;;;;;5075102;28;20025;-71
2021/06/26 01:49:24;;;;;;;4.80;2.08;;;24.30;59.00;;;;;;5075696;28;20460;-71
2021/06/26 01:51:50;;;;;;;5.15;3.28;;;24.30;59.00;;;;;;5074891;28;20029;-70
2021/06/26 01:54:17;;;;;;;8.02;5.68;;;24.30;59.00;;;;;;5075212;28;20028;-70
2021/06/26 01:56:43;;;;;;;12.05;9.98;;;24.30;59.00;;;;;;5073964;28;20472;-72
2021/06/26 01:59:08;;;;;;;18.88;12.50;;;24.30;59.10;;;;;;5074542;28;20020;-71
2021/06/26 02:01:35;;;;;;;21.50;15.57;;;24.30;59.20;;;;;;5075393;28;20032;-71
2021/06/26 02:04:01;;;;;;;18.95;14.77;;;24.30;59.20;;;;;;5076340;28;20016;-71
2021/06/26 02:06:27;;;;;;;17.33;13.35;;;24.30;59.20;;;;;;5065590;28;20032;-71
2021/06/26 02:08:53;;;;;;;17.40;13.68;;;24.30;59.20;;;;;;5062166;28;20033;-68
2021/06/26 02:11:18;;;;;;;19.55;14.70;;;24.30;59.30;;;;;;5064254;28;20040;-69
2021/06/26 02:13:44;;;;;;;18.50;14.77;;;24.30;59.50;;;;;;5062790;28;20486;-69
2021/06/26 02:16:10;;;;;;;16.90;14.30;;;24.30;59.60;;;;;;5063000;28;20453;-69
2021/06/26 02:18:36;;;;;;;18.05;13.63;;;24.30;59.60;;;;;;5064192;28;20039;-70
2021/06/26 02:21:02;;;;;;;15.32;12.10;;;24.30;59.70;;;;;;5061251;28;20021;-69
2021/06/26 02:23:28;;;;;;;17.83;12.05;;;24.30;59.60;;;;;;5062783;28;20073;-69
2021/06/26 02:25:54;;;;;;;14.32;11.05;;;24.30;59.40;;;;;;5063934;28;20104;-69
2021/06/26 02:28:20;;;;;;;13.23;9.90;;;24.30;59.30;;;;;;5062133;28;20028;-69
2021/06/26 02:30:46;;;;;;;12.73;9.30;;;24.30;59.30;;;;;;5063156;28;20033;-68
2021/06/26 02:33:11;;;;;;;12.15;9.80;;;24.30;60.00;;;;;;5063619;28;20393;-69
2021/06/26 02:35:37;;;;;;;9.98;8.23;;;24.20;59.30;;;;;;5061968;28;20032;-67
2021/06/26 02:38:03;;;;;;;10.20;7.90;;;24.20;59.20;;;;;;5064304;28;20041;-69
2021/06/26 02:40:29;;;;;;;8.88;6.93;;;24.20;59.30;;;;;;5061940;28;20024;-69
2021/06/26 02:42:54;;;;;;;9.50;6.50;;;24.20;59.30;;;;;;5063800;28;20028;-69
2021/06/26 02:45:20;;;;;;;20.58;15.30;;;24.20;59.30;;;;;;5061793;28;20032;-69
2021/06/26 02:47:46;;;;;;;23.90;17.63;;;24.20;59.30;;;;;;5062840;28;20095;-70
2021/06/26 02:50:12;;;;;;;18.73;14.05;;;24.20;59.30;;;;;;5062672;28;20048;-69
2021/06/26 02:52:38;;;;;;;22.38;15.27;;;24.20;59.20;;;;;;5061356;28;20032;-67
2021/06/26 02:55:05;;;;;;;21.23;15.85;;;24.20;59.20;;;;;;5063149;28;20021;-69
2021/06/26 02:57:30;;;;;;;24.00;18.20;;;24.20;59.20;;;;;;5062825;28;20103;-69
2021/06/26 02:59:56;;;;;;;24.67;19.33;;;24.20;59.20;;;;;;5061307;28;20905;-70
2021/06/26 03:02:22;;;;;;;31.60;23.15;;;24.20;59.10;;;;;;5061723;28;20515;-68
2021/06/26 03:04:48;;;;;;;31.80;23.67;;;24.30;59.30;;;;;;5062295;28;20025;-68
2021/06/26 03:07:14;;;;;;;37.08;25.73;;;24.20;59.20;;;;;;5059677;28;20106;-68
2021/06/26 03:09:40;;;;;;;29.98;22.20;;;24.20;59.30;;;;;;5063064;28;20055;-69
2021/06/26 03:12:07;;;;;;;27.52;20.80;;;24.20;59.30;;;;;;5061979;28;20021;-68
2021/06/26 03:14:32;;;;;;;24.58;17.13;;;24.20;59.30;;;;;;5061722;28;20025;-69
2021/06/26 03:16:58;;;;;;;23.02;16.92;;;24.20;59.30;;;;;;5062928;28;20534;-68
2021/06/26 03:19:24;;;;;;;22.08;15.40;;;24.20;59.30;;;;;;5061653;28;20029;-68
2021/06/26 03:21:49;;;;;;;17.50;13.48;;;24.20;59.30;;;;;;5061490;28;20477;-67
2021/06/26 03:24:15;;;;;;;18.38;13.00;;;24.20;59.40;;;;;;5062882;28;20086;-67
2021/06/26 03:26:41;;;;;;;14.32;11.25;;;24.20;59.50;;;;;;5060854;28;20036;-70
2021/06/26 03:29:07;;;;;;;14.20;10.15;;;24.20;59.50;;;;;;5062262;28;20095;-70
2021/06/26 03:31:33;;;;;;;13.43;9.45;;;24.20;59.60;;;;;;5062624;28;20017;-68
2021/06/26 03:33:59;;;;;;;12.48;9.18;;;24.20;59.60;;;;;;5060449;28;20089;-69
2021/06/26 03:36:25;;;;;;;14.13;7.55;;;24.20;59.80;;;;;;5061795;28;20041;-69
2021/06/26 03:38:52;;;;;;;10.40;7.85;;;24.20;59.90;;;;;;5061588;28;20025;-69
2021/06/26 03:41:23;;;;;;;10.52;7.07;;;24.10;60.00;;;;;;5060683;28;20029;-70
2021/06/26 03:43:49;;;;;;;13.27;6.97;;;24.20;60.20;;;;;;5061233;28;20379;-70
2021/06/26 03:46:14;;;;;;;10.98;6.53;;;24.10;60.20;;;;;;5062475;28;20017;-70
2021/06/26 03:48:40;;;;;;;8.48;5.47;;;24.20;60.40;;;;;;5060108;28;20021;-69
2021/06/26 03:51:06;;;;;;;7.45;5.75;;;24.10;60.50;;;;;;5061494;28;20028;-69
2021/06/26 03:53:31;;;;;;;10.18;5.13;;;24.20;60.70;;;;;;5061963;28;20532;-70
2021/06/26 03:55:57;;;;;;;7.68;5.07;;;24.20;60.80;;;;;;5060450;28;20104;-69
2021/06/26 03:58:25;;;;;;;7.15;5.32;;;24.10;61.00;;;;;;5061950;28;20020;-69
2021/06/26 04:00:51;;;;;;;8.15;4.70;;;24.20;61.30;;;;;;5061797;28;20091;-68
2021/06/26 04:03:17;;;;;;;14.73;5.15;;;24.10;61.30;;;;;;5060115;28;20021;-70
2021/06/26 04:05:44;;;;;;;9.07;4.93;;;24.10;61.40;;;;;;5061815;28;20130;-68
2021/06/26 04:08:10;;;;;;;6.03;3.83;;;24.10;61.60;;;;;;5060099;28;20453;-68
2021/06/26 04:10:36;;;;;;;8.27;4.60;;;24.10;61.80;;;;;;5060349;28;20079;-68
2021/06/26 04:13:02;;;;;;;6.95;4.53;;;24.10;61.90;;;;;;5061070;28;20044;-68
2021/06/26 04:15:28;;;;;;;6.40;4.32;;;24.10;62.10;;;;;;5061076;28;20025;-69
2021/06/26 04:17:54;;;;;;;8.05;4.05;;;24.10;62.20;;;;;;5060678;28;20058;-69
2021/06/26 04:20:19;;;;;;;8.38;3.67;;;24.10;62.30;;;;;;5061785;28;20477;-69
2021/06/26 04:22:45;;;;;;;5.18;3.80;;;24.10;62.30;;;;;;5060760;28;20033;-69
2021/06/26 04:25:16;;;;;;;5.90;3.53;;;24.10;62.20;;;;;;5060558;28;20020;-69
2021/06/26 04:27:42;;;;;;;5.18;3.40;;;24.10;62.30;;;;;;5060465;28;20021;-69
2021/06/26 04:30:09;;;;;;;8.18;3.83;;;24.10;62.30;;;;;;5061178;28;20044;-68
2021/06/26 04:32:37;;;;;;;5.07;3.00;;;24.10;62.30;;;;;;5061888;28;20036;-70
2021/06/26 04:35:04;;;;;;;7.60;3.15;;;24.10;62.30;;;;;;5059962;28;20465;-68
2021/06/26 04:37:30;;;;;;;5.68;3.03;;;24.10;62.30;;;;;;5059755;28;20063;-69
2021/06/26 04:39:56;;;;;;;7.88;3.60;;;24.20;62.50;;;;;;5060315;28;20037;-69
2021/06/26 04:42:22;;;;;;;5.75;3.08;;;24.10;62.50;;;;;;5061863;28;20024;-69
2021/06/26 04:44:48;;;;;;;8.32;3.83;;;24.10;62.50;;;;;;5060873;28;20393;-68
2021/06/26 04:47:14;;;;;;;7.85;3.28;;;24.10;62.60;;;;;;5059948;28;20033;-68
2021/06/26 04:49:39;;;;;;;6.32;3.70;;;24.10;62.70;;;;;;5060486;28;20033;-69
2021/06/26 04:52:07;;;;;;;6.97;4.10;;;24.10;62.70;;;;;;5060630;28;20017;-71
2021/06/26 04:54:32;;;;;;;7.45;5.50;;;24.20;62.80;;;;;;5060617;28;20025;-71
2021/06/26 04:56:58;;;;;;;12.73;7.97;;;24.20;62.90;;;;;;5062033;28;20075;-71
2021/06/26 04:59:24;;;;;;;13.75;10.02;;;24.10;62.90;;;;;;5061545;28;20031;-71
2021/06/26 05:01:49;;;;;;;14.32;9.77;;;24.10;63.00;;;;;;5061128;28;20368;-71
2021/06/26 05:04:15;;;;;;;16.75;10.45;;;24.10;63.10;;;;;;5060474;28;20526;-70
2021/06/26 05:06:41;;;;;;;18.13;10.02;;;24.10;63.10;;;;;;5065264;28;20086;-70
2021/06/26 05:09:06;;;;;;;10.00;7.78;;;24.10;63.00;;;;;;5064455;28;20025;-69
2021/06/26 05:11:32;;;;;;;11.43;7.80;;;24.10;63.00;;;;;;5064065;28;20017;-69
2021/06/26 05:13:58;;;;;;;11.68;8.13;;;24.10;63.00;;;;;;5065154;28;20052;-69
2021/06/26 05:16:23;;;;;;;11.18;6.88;;;24.10;63.00;;;;;;5063567;28;20028;-68
2021/06/26 05:18:49;;;;;;;10.68;6.30;;;24.10;63.10;;;;;;5062587;28;20051;-68
2021/06/26 05:21:15;;;;;;;9.13;5.68;;;24.10;63.00;;;;;;5065228;28;20024;-68
2021/06/26 05:23:40;;;;;;;9.23;5.45;;;24.10;63.00;;;;;;5063059;28;20025;-68
2021/06/26 05:26:09;;;;;;;9.05;5.20;;;24.10;62.90;;;;;;5064727;28;20028;-68
2021/06/26 05:28:36;;;;;;;8.68;5.22;;;24.10;62.80;;;;;;5064947;28;20017;-68
2021/06/26 05:31:02;;;;;;;8.00;4.63;;;24.10;62.80;;;;;;5063083;28;20079;-68
2021/06/26 05:33:27;;;;;;;7.68;4.43;;;24.10;62.80;;;;;;5063701;28;20028;-68
2021/06/26 05:35:53;;;;;;;7.57;4.60;;;24.10;63.00;;;;;;5064386;28;20430;-70
2021/06/26 05:38:19;;;;;;;8.15;4.38;;;24.10;63.20;;;;;;5062499;28;20056;-70
2021/06/26 05:40:44;;;;;;;6.57;4.18;;;24.10;63.30;;;;;;5064672;28;20035;-70
2021/06/26 05:43:10;;;;;;;7.03;3.88;;;24.10;63.40;;;;;;5063833;28;20103;-67
2021/06/26 05:45:36;;;;;;;6.18;3.67;;;24.10;63.40;;;;;;5063011;28;20029;-67
2021/06/26 05:48:02;;;;;;;7.07;4.00;;;24.20;63.60;;;;;;5064546;28;20021;-68
2021/06/26 05:50:27;;;;;;;5.38;4.00;;;24.20;63.60;;;;;;5063593;28;20091;-68
2021/06/26 05:52:55;;;;;;;8.10;3.17;;;24.20;63.60;;;;;;5063307;28;20017;-69
2021/06/26 05:55:22;;;;;;;4.45;3.00;;;24.20;63.70;;;;;;5064649;28;20031;-69
2021/06/26 05:57:48;;;;;;;6.35;3.13;;;24.20;63.60;;;;;;5063605;28;20021;-68
2021/06/26 06:00:16;;;;;;;5.63;3.15;;;24.20;63.60;;;;;;5061435;28;20438;-68
2021/06/26 06:02:42;;;;;;;6.90;3.10;;;24.20;63.50;;;;;;5062311;28;20017;-70
2021/06/26 06:05:08;;;;;;;7.35;3.83;;;24.20;63.60;;;;;;5063563;28;20111;-68
2021/06/26 06:07:36;;;;;;;4.80;3.10;;;24.20;63.50;;;;;;5064129;28;20013;-69
2021/06/26 06:10:06;;;;;;;6.43;2.88;;;24.20;63.50;;;;;;5060877;28;20082;-70
2021/06/26 06:12:33;;;;;;;5.70;3.22;;;24.20;63.40;;;;;;5062860;28;20017;-68
2021/06/26 06:15:00;;;;;;;5.28;2.92;;;24.20;63.20;;;;;;5062643;28;20024;-69
2021/06/26 06:17:25;;;;;;;5.75;3.10;;;24.20;63.00;;;;;;5062581;28;20021;-73
2021/06/26 06:19:51;;;;;;;5.88;3.05;;;24.20;62.70;;;;;;5062851;28;20033;-69
2021/06/26 06:22:17;;;;;;;5.00;2.47;;;24.20;62.60;;;;;;5064377;28;20028;-70
2021/06/26 06:24:43;;;;;;;5.82;2.33;;;24.20;62.40;;;;;;5062298;28;20028;-70
2021/06/26 06:27:08;;;;;;;7.47;2.55;;;24.20;62.30;;;;;;5062913;28;20024;-68
2021/06/26 06:29:34;;;;;;;8.07;2.80;;;24.20;62.20;;;;;;5063708;28;20039;-70
2021/06/26 06:32:00;;;;;;;6.00;3.05;;;24.20;62.30;;;;;;5061629;28;20021;-70
2021/06/26 06:34:25;;;;;;;4.65;2.42;;;24.30;62.40;;;;;;5063663;28;20799;-68
2021/06/26 06:36:51;;;;;;;5.05;2.80;;;24.30;62.30;;;;;;5061496;28;20456;-69
2021/06/26 06:39:17;;;;;;;5.20;2.85;;;24.30;62.30;;;;;;5061784;28;20064;-69
2021/06/26 06:41:43;;;;;;;3.13;2.70;;;24.30;62.30;;;;;;5063554;28;20031;-71
2021/06/26 06:44:08;;;;;;;5.78;2.80;;;24.30;62.30;;;;;;5062586;28;20028;-69
2021/06/26 06:46:34;;;;;;;4.88;2.40;;;24.30;62.10;;;;;;5062024;28;20029;-71
2021/06/26 06:49:00;;;;;;;3.75;2.15;;;24.30;62.20;;;;;;5063724;28;20020;-70
2021/06/26 06:51:25;;;;;;;2.97;2.40;;;24.30;62.20;;;;;;5061918;28;20060;-69
2021/06/26 06:53:51;;;;;;;4.72;2.55;;;24.30;62.20;;;;;;5062337;28;20024;-68
2021/06/26 06:56:16;;;;;;;4.38;2.75;;;24.30;62.20;;;;;;5063387;28;20033;-68
2021/06/26 06:58:42;;;;;;;3.88;2.70;;;24.30;62.20;;;;;;5061489;28;20032;-69
2021/06/26 07:01:08;;;;;;;4.85;2.90;;;24.30;62.20;;;;;;5062675;28;20028;-69
2021/06/26 07:03:34;;;;;;;7.15;2.60;;;24.30;62.10;;;;;;5061874;28;20363;-70
2021/06/26 07:05:59;;;;;;;4.63;2.70;;;24.30;61.90;;;;;;5053333;28;20025;-69
2021/06/26 07:08:25;;;;;;;5.55;3.78;;;24.30;62.00;;;;;;5052164;28;20053;-68
2021/06/26 07:10:51;;;;;;;3.42;2.40;;;24.30;62.10;;;;;;5059087;28;20119;-67
2021/06/26 07:13:16;;;;;;;5.10;2.40;;;24.30;62.00;;;;;;5060865;28;20473;-69
2021/06/26 07:15:42;;;;;;;7.65;2.55;;;24.40;61.20;;;;;;5062730;28;20424;-67
2021/06/26 07:18:08;;;;;;;9.10;3.83;;;24.30;61.00;;;;;;5060935;28;20021;-68
2021/06/26 07:20:33;;;;;;;24.45;16.88;;;24.30;60.90;;;;;;5062411;28;20099;-68
2021/06/26 07:22:59;;;;;;;32.17;24.60;;;24.30;60.80;;;;;;5061844;28;20036;-70
2021/06/26 07:25:25;;;;;;;48.65;29.75;;;24.30;60.70;;;;;;5060896;28;20025;-69
2021/06/26 07:27:50;;;;;;;74.18;51.10;;;24.30;61.00;;;;;;5062571;28;20024;-67
2021/06/26 07:30:16;;;;;;;29.50;20.35;;;24.30;60.90;;;;;;5060322;28;20064;-71
2021/06/26 07:32:44;;;;;;;32.22;22.27;;;24.30;61.00;;;;;;5061131;28;20031;-71
2021/06/26 07:35:10;;;;;;;23.92;16.13;;;24.20;61.50;;;;;;5061129;28;20013;-68
2021/06/26 07:37:36;;;;;;;12.27;9.15;;;24.20;62.10;;;;;;5060547;28;20044;-72
2021/06/26 07:40:02;;;;;;;21.92;7.90;;;24.20;62.80;;;;;;5062424;28;20028;-71
2021/06/26 07:42:27;;;;;;;12.27;7.25;;;24.20;63.30;;;;;;5059470;28;20366;-71
2021/06/26 07:44:53;;;;;;;13.82;4.95;;;24.20;63.10;;;;;;5061863;28;20108;-68
2021/06/26 07:47:19;;;;;;;11.75;3.95;;;24.20;62.50;;;;;;5062158;28;20484;-69
2021/06/26 07:49:44;;;;;;;7.57;4.20;;;24.20;62.50;;;;;;5060409;28;20496;-69
2021/06/26 07:52:10;;;;;;;5.78;3.58;;;24.20;62.60;;;;;;5062644;28;20380;-68
2021/06/26 07:54:36;;;;;;;8.48;3.33;;;24.30;62.60;;;;;;5061626;28;20028;-69
2021/06/26 07:57:01;;;;;;;8.02;3.58;;;24.20;62.30;;;;;;5060977;28;20095;-70
2021/06/26 07:59:27;;;;;;;7.43;3.28;;;24.30;62.40;;;;;;5062179;28;20020;-68
2021/06/26 08:01:54;;;;;;;4.85;2.78;;;24.30;61.70;;;;;;5061018;28;20409;-69
2021/06/26 08:04:19;;;;;;;4.43;2.78;;;24.30;61.60;;;;;;5061087;28;20028;-69
2021/06/26 08:06:45;;;;;;;8.50;3.22;;;24.20;61.60;;;;;;5062292;28;20070;-70
2021/06/26 08:09:11;;;;;;;4.90;2.88;;;24.20;61.60;;;;;;5060811;28;20067;-68
2021/06/26 08:11:36;;;;;;;5.40;3.10;;;24.30;61.80;;;;;;5061483;28;20377;-70
2021/06/26 08:14:02;;;;;;;6.47;2.65;;;24.30;62.00;;;;;;5062156;28;20377;-68
2021/06/26 08:16:28;;;;;;;9.75;3.00;;;24.30;62.00;;;;;;5060159;28;20472;-70
2021/06/26 08:18:54;;;;;;;5.80;3.13;;;24.30;62.40;;;;;;5061916;28;20020;-72
2021/06/26 08:21:21;;;;;;;7.93;3.17;;;24.30;62.30;;;;;;5061519;28;20392;-69
2021/06/26 08:23:49;;;;;;;10.40;2.70;;;24.30;62.20;;;;;;5069260;28;20055;-69
2021/06/26 08:26:15;;;;;;;9.60;3.10;;;24.30;62.40;;;;;;5064648;28;20067;-72
2021/06/26 08:28:41;;;;;;;6.75;2.72;;;24.30;62.50;;;;;;5059812;28;20465;-74
2021/06/26 08:31:06;;;;;;;8.02;5.03;;;24.30;62.70;;;;;;5061917;28;20036;-71
2021/06/26 08:33:32;;;;;;;17.67;10.85;;;24.30;63.10;;;;;;5060293;28;20048;-70
2021/06/26 08:35:58;;;;;;;37.13;29.92;;;24.30;62.90;;;;;;5060830;28;20476;-71
2021/06/26 08:38:24;;;;;;;38.38;25.48;;;24.30;63.20;;;;;;5062625;28;20052;-71
2021/06/26 08:40:53;;;;;;;39.45;30.83;;;24.30;63.10;;;;;;5063824;28;20152;-69
2021/06/26 08:43:20;;;;;;;28.23;20.73;;;24.30;63.10;;;;;;5065194;28;20033;-70
2021/06/26 08:45:46;;;;;;;17.30;13.23;;;24.30;63.90;;;;;;5065866;28;20029;-69
2021/06/26 08:48:12;;;;;;;15.05;11.20;;;24.30;64.10;;;;;;5063862;28;20027;-67
2021/06/26 08:50:38;;;;;;;11.13;8.00;;;24.30;63.80;;;;;;5065152;28;20477;-67
2021/06/26 08:53:05;;;;;;;10.10;7.15;;;24.30;63.70;;;;;;5063094;28;20067;-69
2021/06/26 08:55:30;;;;;;;7.88;5.45;;;24.30;63.50;;;;;;5065774;28;20025;-68
2021/06/26 08:57:56;;;;;;;7.15;4.85;;;24.40;63.50;;;;;;5064352;28;20366;-68
2021/06/26 09:00:25;;;;;;;9.13;4.57;;;24.40;63.30;;;;;;5064239;28;20059;-68
2021/06/26 09:02:51;;;;;;;5.78;4.18;;;24.40;63.00;;;;;;5065450;28;20388;-68
2021/06/26 09:05:30;;;;;;;7.95;4.65;;;24.30;63.00;;;;;;5064315;28;20017;-68
2021/06/26 09:08:08;;;;;;;8.40;5.10;;;24.30;63.40;;;;;;5064029;28;20026;-68
2021/06/26 09:10:34;;;;;;;7.70;4.55;;;24.30;64.40;;;;;;5063896;28;20037;-70
2021/06/26 09:13:24;;;;;;;9.45;5.72;;;24.40;64.70;;;;;;5064313;28;20048;-68
2021/06/26 09:16:04;;;;;;;8.60;5.60;;;24.40;65.20;;;;;;5065523;28;20028;-70
2021/06/26 09:18:48;;;;;;;8.10;5.00;;;24.40;65.60;;;;;;5065057;28;20024;-67
2021/06/26 09:21:17;;;;;;;9.43;4.50;;;24.40;65.70;;;;;;5063865;28;20043;-67
2021/06/26 09:23:43;;;;;;;6.25;3.85;;;24.40;65.70;;;;;;5063589;28;20048;-67
2021/06/26 09:26:11;;;;;;;5.60;4.78;;;24.40;65.80;;;;;;5065486;28;20500;-69
2021/06/26 09:28:39;;;;;;;7.43;5.25;;;24.40;66.50;;;;;;5063752;28;20021;-68
2021/06/26 09:31:13;;;;;;;5.97;4.00;;;24.50;66.70;;;;;;5063343;28;20039;-68
2021/06/26 09:33:39;;;;;;;7.63;4.65;;;24.50;66.40;;;;;;5064136;28;20466;-69
2021/06/26 09:36:10;;;;;;;8.65;4.30;;;24.50;66.70;;;;;;5063514;28;20074;-69
2021/06/26 09:38:53;;;;;;;;;;;24.50;66.50;;;;;;5064140;28;20032;-69
2021/06/26 09:41:18;;;;;;;9.32;4.40;;;24.50;67.00;;;;;;5063838;28;19915;-69
2021/06/26 09:43:44;;;;;;;5.78;3.90;;;24.50;66.70;;;;;;5063060;28;20091;-70
2021/06/26 09:46:15;;;;;;;11.68;5.22;;;24.40;66.60;;;;;;5063673;28;20021;-67
2021/06/26 09:49:03;;;;;;;9.63;5.10;;;24.50;67.70;;;;;;5063819;28;20028;-67
2021/06/26 09:51:31;;;;;;;6.47;3.90;;;24.50;67.50;;;;;;5064444;28;20035;-68
2021/06/26 09:53:59;;;;;;;4.93;3.20;;;24.50;66.80;;;;;;5063129;28;20029;-73
2021/06/26 09:56:36;;;;;;;26.40;19.75;;;24.60;66.00;;;;;;5063286;28;20056;-73
2021/06/26 09:59:02;;;;;;;22.98;18.23;;;24.60;66.10;;;;;;5064258;28;20033;-72
2021/06/26 10:01:28;;;;;;;54.90;42.13;;;24.60;66.60;;;;;;5062561;28;20782;-70
2021/06/26 10:03:54;;;;;;;54.88;43.72;;;24.60;67.10;;;;;;5064756;28;20078;-71
2021/06/26 10:06:21;;;;;;;48.83;36.75;;;24.60;67.80;;;;;;5062022;28;20037;-69
2021/06/26 10:08:47;;;;;;;24.08;19.10;;;24.60;67.10;;;;;;5062814;28;20100;-70
2021/06/26 10:11:13;;;;;;;21.27;16.90;;;24.50;66.90;;;;;;5062180;28;20037;-68
2021/06/26 10:13:43;;;;;;;15.80;11.77;;;24.50;67.70;;;;;;5063347;28;20415;-74
2021/06/26 10:16:09;;;;;;;11.10;8.63;;;24.50;67.80;;;;;;5064167;28;20127;-69
2021/06/26 10:18:35;;;;;;;15.48;8.43;;;24.60;68.00;;;;;;5062432;28;20048;-68
2021/06/26 10:21:02;;;;;;;10.20;6.38;;;24.70;67.50;;;;;;5062398;28;20040;-68
2021/06/26 10:23:33;;;;;;;9.80;6.70;;;24.70;67.30;;;;;;5063741;28;20048;-69
2021/06/26 10:26:00;;;;;;;9.57;6.13;;;24.70;66.90;;;;;;5062801;28;20031;-69
2021/06/26 10:28:26;;;;;;;7.03;4.65;;;24.60;66.80;;;;;;5060303;28;20025;-75
2021/06/26 10:31:02;;;;;;;7.28;4.60;;;24.60;66.90;;;;;;5063519;28;20025;-67
2021/06/26 10:33:30;;;;;;;8.90;4.25;;;24.60;66.40;;;;;;5063923;28;20037;-68
2021/06/26 10:35:58;;;;;;;8.00;3.78;;;24.70;66.10;;;;;;5061379;28;20021;-68
2021/06/26 10:38:24;;;;;;;8.15;5.57;;;24.70;65.60;;;;;;5062437;28;20113;-68
2021/06/26 10:40:53;;;;;;;17.77;14.13;;;24.70;65.60;;;;;;5063691;28;20476;-67
2021/06/26 10:43:22;;;;;;;16.40;13.38;;;24.70;65.10;;;;;;5062055;28;20121;-67
2021/06/26 10:45:49;;;;;;;18.00;14.07;;;24.70;64.20;;;;;;5061554;28;20020;-67
2021/06/26 10:48:22;;;;;;;14.45;9.77;;;24.70;64.30;;;;;;5062185;28;20024;-67
2021/06/26 10:50:53;;;;;;;11.90;9.70;;;24.60;64.60;;;;;;5062857;28;21473;-71
2021/06/26 10:53:33;;;;;;;9.23;7.43;;;24.70;64.90;;;;;;5061977;28;20039;-68
2021/06/26 10:56:17;;;;;;;9.60;5.63;;;24.70;64.60;;;;;;5062362;28;20033;-69
2021/06/26 10:58:45;;;;;;;9.27;4.75;;;24.70;64.10;;;;;;5062115;28;20013;-67
2021/06/26 11:01:15;;;;;;;5.38;4.18;;;24.80;63.60;;;;;;5060456;28;20397;-66
2021/06/26 11:03:42;;;;;;;8.63;3.45;;;24.70;63.80;;;;;;5062704;28;20055;-67
2021/06/26 11:06:38;;;;;;;7.63;3.58;;;24.70;64.10;;;;;;5063018;28;20025;-68
2021/06/26 11:09:07;;;;;;;5.95;3.38;;;24.70;64.20;;;;;;5058607;28;20473;-66
2021/06/26 11:11:38;;;;;;;6.82;2.88;;;24.70;63.50;;;;;;5061032;28;20346;-66
2021/06/26 11:14:16;;;;;;;4.28;2.83;;;24.70;63.20;;;;;;5061575;28;20028;-67
2021/06/26 11:16:50;;;;;;;5.68;2.60;;;24.80;62.80;;;;;;5062340;28;20366;-69
2021/06/26 11:19:16;;;;;;;6.18;2.72;;;24.80;62.50;;;;;;5061074;28;20123;-70
2021/06/26 11:21:47;;;;;;;6.72;2.85;;;24.80;62.40;;;;;;5061832;28;20020;-67
2021/06/26 11:24:13;;;;;;;7.10;2.72;;;24.90;62.20;;;;;;5062821;28;20025;-66
2021/06/26 11:26:53;;;;;;;4.97;2.50;;;24.90;61.90;;;;;;5060122;28;20124;-70
2021/06/26 11:29:22;;;;;;;;;;;25.00;61.80;;;;;;5062011;28;20503;-68
2021/06/26 11:31:48;;;;;;;29.15;22.08;;;24.90;62.10;;;;;;5061083;28;19919;-78
2021/06/26 11:34:13;;;;;;;40.22;27.48;;;24.90;64.00;;;;;;5060199;28;20039;-72
2021/06/26 11:36:39;;;;;;;40.08;31.52;;;25.00;63.30;;;;;;5060581;28;20050;-74
2021/06/26 11:39:05;;;;;;;30.65;22.15;;;25.00;63.00;;;;;;5061426;28;20109;-75
2021/06/26 11:41:31;;;;;;;38.30;27.65;;;24.90;62.80;;;;;;5060267;28;20103;-74
2021/06/26 11:43:57;;;;;;;38.88;30.98;;;25.00;63.30;;;;;;5062549;28;20075;-74
2021/06/26 11:46:23;;;;;;;22.83;16.30;;;25.00;63.00;;;;;;5059856;28;20039;-78
2021/06/26 11:48:52;;;;;;;18.25;12.88;;;25.00;62.60;;;;;;5061824;28;20021;-76
2021/06/26 11:51:17;;;;;;;12.80;8.38;;;25.00;62.50;;;;;;5071002;28;20486;-77
2021/06/26 11:53:43;;;;;;;9.25;5.80;;;24.90;63.20;;;;;;5071953;28;20060;-78
2021/06/26 11:56:14;;;;;;;8.48;4.40;;;25.00;61.90;;;;;;5068674;28;20025;-77
2021/06/26 11:58:46;;;;;;;7.65;4.65;;;25.00;61.90;;;;;;5070102;28;20025;-71
2021/06/26 12:01:13;;;;;;;5.85;4.25;;;25.00;62.30;;;;;;5070090;28;20444;-75
2021/06/26 12:03:41;;;;;;;7.22;4.25;;;25.00;62.40;;;;;;5070343;28;20050;-74
2021/06/26 12:06:14;;;;;;;9.73;4.13;;;25.00;62.80;;;;;;5071279;28;20024;-72
2021/06/26 12:08:56;;;;;;;6.50;4.15;;;25.00;62.30;;;;;;5072453;28;20081;-74
2021/06/26 12:11:28;;;;;;;9.13;4.63;;;25.00;62.20;;;;;;5072523;28;20133;-70
2021/06/26 12:13:56;;;;;;;7.50;3.78;;;25.00;62.00;;;;;;5075420;28;20025;-68
2021/06/26 12:16:25;;;;;;;20.13;11.38;;;25.00;62.00;;;;;;5072352;28;20033;-74
2021/06/26 12:18:58;;;;;;;39.83;32.92;;;25.10;61.40;;;;;;5059708;28;20021;-73
2021/06/26 12:21:27;;;;;;;51.63;45.92;;;25.10;61.20;;;;;;5060104;28;20344;-72
2021/06/26 12:23:55;;;;;;;67.78;59.40;;;25.10;61.20;;;;;;5063985;28;20048;-72
2021/06/26 12:26:26;;;;;;;53.72;45.22;;;25.20;61.50;;;;;;5065998;28;20016;-72
2021/06/26 12:28:52;;;;;;;49.45;37.05;;;25.10;61.50;;;;;;5065770;28;20381;-77
2021/06/26 12:31:20;;;;;;;35.08;25.23;;;25.10;61.90;;;;;;5063881;28;20033;-76
2021/06/26 12:33:58;;;;;;;24.23;20.40;;;25.10;62.10;;;;;;5065569;28;20031;-72
2021/06/26 12:36:23;;;;;;;16.65;13.25;;;25.10;62.20;;;;;;5064622;28;20025;-72
2021/06/26 12:38:49;;;;;;;13.48;9.85;;;25.10;62.40;;;;;;5064604;28;20021;-71
2021/06/26 12:41:20;;;;;;;10.55;7.70;;;25.20;61.60;;;;;;5062934;28;20421;-71